createdAt,value
2022-08-04T00:01:41.065Z,16.20
2022-08-04T00:04:15.011Z,16.17
2022-08-04T00:06:53.709Z,16.08
2022-08-04T00:09:35.424Z,15.97
2022-08-04T00:12:03.219Z,15.84
2022-08-04T00:14:35.626Z,15.89
2022-08-04T00:17:07.205Z,15.91
2022-08-04T00:19:44.589Z,15.87
2022-08-04T00:22:13.337Z,15.90
2022-08-04T00:24:41.277Z,15.73
2022-08-04T00:27:08.935Z,15.71
2022-08-04T00:29:39.116Z,15.66
2022-08-04T00:32:08.767Z,15.67
2022-08-04T00:34:36.931Z,15.66
2022-08-04T00:37:05.807Z,15.68
2022-08-04T00:39:33.084Z,15.57
2022-08-04T00:42:20.881Z,15.55
2022-08-04T00:45:04.459Z,15.58
2022-08-04T00:48:12.193Z,15.63
2022-08-04T00:50:58.343Z,15.59
2022-08-04T00:53:50.575Z,15.68
2022-08-04T00:56:38.086Z,15.55
2022-08-04T00:59:35.552Z,15.57
2022-08-04T01:02:15.734Z,15.44
2022-08-04T01:05:11.367Z,15.41
2022-08-04T01:07:50.063Z,15.40
2022-08-04T01:10:37.759Z,15.43
2022-08-04T01:13:33.569Z,15.48
2022-08-04T01:16:02.266Z,15.59
2022-08-04T01:18:37.882Z,15.45
2022-08-04T01:21:28.981Z,15.42
2022-08-04T01:24:29.734Z,15.41
2022-08-04T01:27:32.225Z,15.52
2022-08-04T01:30:02.470Z,15.47
2022-08-04T01:32:37.389Z,15.39
2022-08-04T01:35:09.022Z,15.17
2022-08-04T01:37:50.041Z,15.18
2022-08-04T01:40:17.290Z,15.02
2022-08-04T01:42:45.698Z,15.19
2022-08-04T01:45:14.008Z,15.19
2022-08-04T01:47:43.090Z,15.08
2022-08-04T01:50:13.279Z,14.96
2022-08-04T01:52:42.187Z,14.97
2022-08-04T01:55:11.815Z,14.91
2022-08-04T01:57:43.270Z,14.85
2022-08-04T02:00:12.622Z,14.81
2022-08-04T02:02:39.373Z,14.70
2022-08-04T02:05:06.374Z,14.79
2022-08-04T02:08:03.558Z,14.84
2022-08-04T02:10:53.873Z,14.83
2022-08-04T02:13:31.139Z,14.73
2022-08-04T02:16:05.173Z,14.73
2022-08-04T02:18:59.990Z,14.73
2022-08-04T02:21:27.902Z,14.73
2022-08-04T02:24:15.508Z,14.84
2022-08-04T02:26:46.422Z,14.72
2022-08-04T02:29:19.403Z,14.66
2022-08-04T02:31:52.550Z,14.60
2022-08-04T02:34:32.331Z,14.51
2022-08-04T02:37:00.159Z,14.59
2022-08-04T02:39:41.392Z,14.42
2022-08-04T02:42:16.652Z,14.47
2022-08-04T02:44:45.603Z,14.45
2022-08-04T02:47:13.387Z,14.54
2022-08-04T02:49:42.043Z,14.50
2022-08-04T02:52:12.578Z,14.56
2022-08-04T02:54:40.796Z,14.58
2022-08-04T02:57:09.813Z,14.66
2022-08-04T02:59:57.991Z,14.64
2022-08-04T03:02:45.788Z,14.62
2022-08-04T03:05:49.953Z,14.50
2022-08-04T03:09:04.752Z,14.45
2022-08-04T03:11:52.563Z,14.48
2022-08-04T03:14:48.348Z,14.40
2022-08-04T03:17:53.016Z,14.23
2022-08-04T03:20:49.975Z,14.23
2022-08-04T03:24:05.913Z,14.12
2022-08-04T03:26:51.563Z,13.98
2022-08-04T03:29:43.627Z,14.07
2022-08-04T03:32:21.548Z,13.97
2022-08-04T03:35:00.271Z,14.02
2022-08-04T03:37:53.107Z,14.08
2022-08-04T03:40:40.474Z,14.21
2022-08-04T03:43:58.124Z,14.24
2022-08-04T03:46:57.001Z,14.27
2022-08-04T03:49:50.690Z,14.24
2022-08-04T03:52:41.836Z,14.29
2022-08-04T03:55:20.693Z,14.51
2022-08-04T03:58:18.134Z,14.59
2022-08-04T04:00:52.327Z,14.67
2022-08-04T04:04:03.447Z,14.74
2022-08-04T04:07:07.297Z,14.72
2022-08-04T04:09:57.184Z,14.68
2022-08-04T04:12:36.780Z,14.68
2022-08-04T04:15:35.804Z,14.66
2022-08-04T04:18:08.072Z,14.67
2022-08-04T04:20:51.198Z,14.82
2022-08-04T04:23:59.550Z,14.79
2022-08-04T04:26:25.993Z,14.98
2022-08-04T04:29:29.822Z,16.30
2022-08-04T04:32:22.555Z,17.50
2022-08-04T04:34:58.154Z,18.64
2022-08-04T04:37:48.665Z,19.47
2022-08-04T04:40:24.682Z,20.02
2022-08-04T04:43:51.184Z,20.32
2022-08-04T04:46:37.562Z,20.58
2022-08-04T04:49:28.535Z,21.00
2022-08-04T04:52:21.430Z,21.93
2022-08-04T04:55:07.925Z,22.28
2022-08-04T04:57:53.478Z,21.98
2022-08-04T05:00:24.953Z,22.27
2022-08-04T05:03:23.948Z,22.77
2022-08-04T05:06:22.966Z,22.96
2022-08-04T05:09:24.517Z,24.06
2022-08-04T05:12:59.164Z,25.07
2022-08-04T05:14:58.431Z,25.03
2022-08-04T05:17:42.711Z,25.58
2022-08-04T05:20:24.497Z,25.76
2022-08-04T05:22:59.729Z,27.37
2022-08-04T05:25:34.758Z,27.61
2022-08-04T05:28:15.591Z,26.54
2022-08-04T05:30:50.257Z,26.47
2022-08-04T05:33:28.931Z,27.19
2022-08-04T05:36:20.293Z,27.98
2022-08-04T05:38:53.816Z,29.15
2022-08-04T05:41:22.415Z,29.03
2022-08-04T05:43:50.082Z,30.58
2022-08-04T05:46:17.919Z,30.08
2022-08-04T05:48:45.758Z,29.32
2022-08-04T05:51:14.014Z,29.50
2022-08-04T05:53:44.305Z,29.95
2022-08-04T05:56:14.025Z,30.22
2022-08-04T05:58:41.781Z,30.16
2022-08-04T06:01:10.701Z,30.31
2022-08-04T06:03:38.649Z,30.90
2022-08-04T06:06:06.882Z,31.78
2022-08-04T06:08:33.857Z,32.39
2022-08-04T06:11:06.185Z,32.62
2022-08-04T06:13:47.678Z,31.86
2022-08-04T06:16:30.125Z,32.89
2022-08-04T06:20:02.496Z,33.13
2022-08-04T06:21:50.120Z,32.73
2022-08-04T06:24:20.199Z,33.28
2022-08-04T06:26:52.206Z,33.61
2022-08-04T06:29:26.932Z,33.51
2022-08-04T06:32:27.635Z,35.34
2022-08-04T06:34:45.512Z,33.92
2022-08-04T06:37:12.349Z,34.93
2022-08-04T06:40:01.757Z,33.77
2022-08-04T06:42:29.438Z,35.07
2022-08-04T06:44:58.586Z,35.38
2022-08-04T06:47:26.300Z,35.42
2022-08-04T06:51:28.107Z,35.18
2022-08-04T06:52:44.790Z,35.35
2022-08-04T06:55:11.503Z,36.00
2022-08-04T06:57:40.453Z,35.70
2022-08-04T07:00:10.771Z,35.68
2022-08-04T07:02:44.929Z,37.14
2022-08-04T07:05:12.138Z,36.48
2022-08-04T07:07:57.226Z,36.92
2022-08-04T07:10:29.034Z,37.04
2022-08-04T07:12:57.549Z,39.16
2022-08-04T07:15:25.022Z,36.95
2022-08-04T07:17:52.669Z,36.97
2022-08-04T07:20:34.673Z,37.00
2022-08-04T07:23:07.772Z,36.95
2022-08-04T07:25:59.531Z,38.46
2022-08-04T07:28:30.541Z,38.33
2022-08-04T07:31:00.828Z,37.68
2022-08-04T07:33:28.236Z,37.46
2022-08-04T07:36:05.626Z,38.50
2022-08-04T07:38:50.694Z,38.82
2022-08-04T07:41:37.586Z,37.74
2022-08-04T07:44:05.206Z,38.71
2022-08-04T07:46:32.738Z,39.17
2022-08-04T07:49:04.624Z,38.99
2022-08-04T07:51:33.055Z,39.11
2022-08-04T07:54:01.348Z,39.61
2022-08-04T07:56:28.512Z,40.21
2022-08-04T07:58:56.002Z,40.01
2022-08-04T08:01:24.846Z,39.20
2022-08-04T08:03:53.542Z,40.18
2022-08-04T08:06:33.048Z,39.22
2022-08-04T08:09:13.291Z,40.16
2022-08-04T08:12:38.226Z,39.84
2022-08-04T08:14:30.769Z,40.22
2022-08-04T08:16:59.984Z,41.25
2022-08-04T08:19:27.207Z,41.31
2022-08-04T08:21:59.231Z,42.36
2022-08-04T08:24:28.059Z,40.41
2022-08-04T08:26:55.954Z,42.70
2022-08-04T08:29:23.223Z,42.11
2022-08-04T08:31:58.462Z,42.71
2022-08-04T08:34:32.009Z,42.76
2022-08-04T08:37:43.411Z,40.81
2022-08-04T08:40:41.039Z,40.25
2022-08-04T08:44:04.701Z,40.15
2022-08-04T08:46:54.789Z,41.21
2022-08-04T08:50:02.320Z,42.53
2022-08-04T08:52:56.254Z,41.02
2022-08-04T08:55:44.322Z,41.30
2022-08-04T08:58:32.717Z,42.38
2022-08-04T09:01:02.251Z,41.61
2022-08-04T09:04:23.675Z,41.19
2022-08-04T09:06:56.350Z,41.01
2022-08-04T09:09:41.750Z,42.14
2022-08-04T09:12:25.499Z,41.32
2022-08-04T09:15:17.359Z,42.50
2022-08-04T09:18:10.236Z,40.74
2022-08-04T09:20:50.287Z,42.04
2022-08-04T09:23:29.406Z,42.48
2022-08-04T09:26:20.513Z,41.14
2022-08-04T09:29:17.719Z,43.29
2022-08-04T09:32:06.900Z,43.84
2022-08-04T09:35:09.573Z,43.90
2022-08-04T09:37:57.895Z,40.61
2022-08-04T09:40:53.247Z,41.13
2022-08-04T09:43:28.685Z,40.49
2022-08-04T09:46:17.747Z,40.46
2022-08-04T09:48:53.788Z,42.19
2022-08-04T09:51:58.065Z,41.84
2022-08-04T09:54:38.198Z,42.96
2022-08-04T09:57:29.779Z,42.64
2022-08-04T10:00:04.469Z,41.62
2022-08-04T10:02:36.770Z,40.56
2022-08-04T10:05:07.383Z,41.00
2022-08-04T10:07:42.888Z,41.29
2022-08-04T10:10:52.564Z,41.62
2022-08-04T10:13:28.443Z,43.49
2022-08-04T10:16:17.084Z,44.00
2022-08-04T10:18:56.103Z,41.79
2022-08-04T10:21:50.715Z,42.19
2022-08-04T10:26:03.373Z,43.56
2022-08-04T10:28:06.353Z,42.94
2022-08-04T10:30:39.342Z,42.92
2022-08-04T10:33:23.588Z,43.14
2022-08-04T10:36:03.448Z,42.06
2022-08-04T10:38:42.134Z,42.67
2022-08-04T10:41:25.213Z,43.01
2022-08-04T10:44:16.069Z,41.80
2022-08-04T10:46:50.254Z,42.73
2022-08-04T10:49:23.991Z,43.15
2022-08-04T10:51:57.950Z,42.81
2022-08-04T10:54:56.578Z,44.29
2022-08-04T10:57:50.432Z,41.80
2022-08-04T11:00:24.961Z,41.01
2022-08-04T11:03:12.869Z,40.40
2022-08-04T11:05:48.830Z,40.37
2022-08-04T11:08:21.594Z,40.46
2022-08-04T11:11:00.848Z,40.80
2022-08-04T11:13:38.527Z,40.83
2022-08-04T11:16:09.800Z,41.33
2022-08-04T11:19:04.403Z,40.95
2022-08-04T11:21:37.438Z,41.44
2022-08-04T11:24:14.109Z,41.01
2022-08-04T11:26:53.264Z,41.72
2022-08-04T11:29:57.893Z,41.04
2022-08-04T11:32:44.127Z,41.56
2022-08-04T11:35:18.960Z,43.22
2022-08-04T11:37:51.781Z,42.23
2022-08-04T11:40:24.987Z,42.28
2022-08-04T11:43:04.814Z,42.28
2022-08-04T11:45:37.400Z,42.20
2022-08-04T11:48:16.099Z,42.53
2022-08-04T11:50:53.829Z,40.91
2022-08-04T11:53:24.435Z,41.01
2022-08-04T11:56:09.410Z,41.42
2022-08-04T11:58:37.534Z,41.56
2022-08-04T12:01:07.312Z,41.02
2022-08-04T12:04:03.870Z,40.80
2022-08-04T12:06:36.899Z,40.93
2022-08-04T12:09:12.892Z,40.31
2022-08-04T12:12:01.629Z,41.28
2022-08-04T12:14:44.306Z,41.51
2022-08-04T12:17:13.193Z,42.23
2022-08-04T12:20:04.797Z,41.48
2022-08-04T12:22:50.079Z,41.20
2022-08-04T12:25:23.438Z,41.01
2022-08-04T12:27:55.219Z,40.66
2022-08-04T12:30:58.059Z,41.19
2022-08-04T12:34:03.082Z,40.64
2022-08-04T12:36:37.232Z,40.55
2022-08-04T12:39:13.069Z,40.49
2022-08-04T12:41:45.485Z,41.55
2022-08-04T12:44:36.592Z,40.79
2022-08-04T12:47:25.863Z,40.20
2022-08-04T12:50:00.172Z,40.09
2022-08-04T12:55:17.757Z,40.06
2022-08-04T12:57:45.266Z,39.94
2022-08-04T13:00:25.032Z,39.89
2022-08-04T13:03:02.574Z,39.84
2022-08-04T13:05:31.730Z,39.81
2022-08-04T13:08:00.511Z,40.42
2022-08-04T13:10:30.101Z,39.92
2022-08-04T13:13:00.198Z,39.84
2022-08-04T13:15:28.661Z,40.45
2022-08-04T13:18:02.231Z,40.14
2022-08-04T13:20:31.757Z,40.09
2022-08-04T13:23:00.797Z,39.42
2022-08-04T13:26:42.215Z,39.41
2022-08-04T13:28:26.239Z,38.91
2022-08-04T13:30:56.615Z,38.75
2022-08-04T13:33:52.398Z,38.36
2022-08-04T13:36:24.298Z,38.11
2022-08-04T13:38:56.075Z,38.52
2022-08-04T13:41:27.624Z,37.41
2022-08-04T13:44:18.143Z,37.05
2022-08-04T13:46:51.195Z,36.26
2022-08-04T13:49:42.921Z,36.64
2022-08-04T13:52:11.456Z,35.70
2022-08-04T13:54:45.860Z,35.81
2022-08-04T13:57:23.932Z,35.64
2022-08-04T13:59:58.990Z,35.38
2022-08-04T14:02:48.974Z,35.18
2022-08-04T14:05:27.445Z,35.18
2022-08-04T14:08:09.345Z,35.06
2022-08-04T14:10:36.292Z,34.90
2022-08-04T14:13:05.582Z,34.97
2022-08-04T14:16:02.790Z,34.88
2022-08-04T14:18:32.611Z,34.81
2022-08-04T14:21:03.336Z,34.60
2022-08-04T14:23:47.106Z,34.53
2022-08-04T14:26:32.780Z,34.70
2022-08-04T14:29:27.230Z,34.80
2022-08-04T14:32:03.119Z,34.80
2022-08-04T14:34:30.548Z,34.61
2022-08-04T14:37:16.349Z,34.59
2022-08-04T14:40:17.542Z,34.33
2022-08-04T14:42:54.695Z,34.28
2022-08-04T14:45:38.036Z,34.36
2022-08-04T14:48:10.507Z,34.13
2022-08-04T14:50:46.840Z,33.96
2022-08-04T14:53:16.119Z,33.92
2022-08-04T14:55:52.248Z,33.93
2022-08-04T14:58:33.034Z,33.84
2022-08-04T15:01:10.322Z,33.95
2022-08-04T15:03:49.788Z,33.93
2022-08-04T15:06:22.529Z,33.86
2022-08-04T15:08:51.881Z,33.85
2022-08-04T15:11:23.187Z,33.84
2022-08-04T15:13:50.425Z,33.88
2022-08-04T15:16:24.499Z,33.88
2022-08-04T15:18:54.533Z,33.77
2022-08-04T15:21:22.862Z,33.68
2022-08-04T15:23:50.736Z,33.62
2022-08-04T15:26:24.007Z,33.65
2022-08-04T15:28:55.952Z,33.62
2022-08-04T15:32:07.723Z,33.52
2022-08-04T15:34:11.371Z,33.37
2022-08-04T15:36:56.083Z,33.42
2022-08-04T15:39:31.728Z,33.41
2022-08-04T15:42:20.571Z,33.40
2022-08-04T15:46:33.178Z,33.34
2022-08-04T15:48:22.782Z,33.20
2022-08-04T15:50:58.743Z,33.09
2022-08-04T15:53:36.502Z,32.91
2022-08-04T15:56:26.602Z,32.87
2022-08-04T15:58:57.524Z,32.73
2022-08-04T16:01:25.024Z,32.75
2022-08-04T16:03:58.641Z,32.79
2022-08-04T16:06:28.907Z,32.66
2022-08-04T16:09:05.085Z,32.51
2022-08-04T16:11:33.192Z,32.41
2022-08-04T16:14:02.619Z,32.37
2022-08-04T16:16:42.107Z,32.35
2022-08-04T16:19:35.327Z,32.28
2022-08-04T16:22:03.212Z,32.27
2022-08-04T16:24:37.502Z,32.29
2022-08-04T16:27:06.427Z,32.27
2022-08-04T16:29:44.727Z,32.26
2022-08-04T16:32:15.769Z,32.22
2022-08-04T16:35:04.327Z,32.15
2022-08-04T16:37:38.836Z,32.16
2022-08-04T16:43:52.222Z,31.94
2022-08-04T16:47:08.493Z,32.06
2022-08-04T16:49:30.236Z,32.21
2022-08-04T16:52:07.619Z,32.06
2022-08-04T16:54:37.341Z,31.99
2022-08-04T16:57:10.900Z,31.89
2022-08-04T16:59:37.812Z,31.79
2022-08-04T17:02:07.255Z,31.73
2022-08-04T17:04:35.366Z,31.75
2022-08-04T17:07:04.308Z,31.67
2022-08-04T17:09:31.624Z,31.53
2022-08-04T17:11:59.892Z,31.45
2022-08-04T17:14:28.618Z,31.40
2022-08-04T17:17:00.124Z,31.39
2022-08-04T17:19:27.162Z,31.31
2022-08-04T17:22:04.928Z,31.39
2022-08-04T17:24:33.995Z,31.14
2022-08-04T17:27:00.763Z,30.97
2022-08-04T17:29:43.192Z,30.82
2022-08-04T17:32:21.027Z,30.66
2022-08-04T17:35:03.789Z,30.53
2022-08-04T17:37:38.161Z,30.51
2022-08-04T17:40:18.525Z,30.47
2022-08-04T17:44:02.949Z,30.42
2022-08-04T17:46:29.217Z,30.33
2022-08-04T17:49:06.770Z,30.25
2022-08-04T17:52:05.265Z,30.28
2022-08-04T17:57:25.816Z,30.46
2022-08-04T17:59:59.219Z,30.33
2022-08-04T18:05:50.278Z,30.11
2022-08-04T18:08:34.470Z,30.06
2022-08-04T18:11:01.875Z,29.94
2022-08-04T18:13:28.695Z,29.84
2022-08-04T18:16:22.174Z,29.62
2022-08-04T18:19:11.343Z,29.36
2022-08-04T18:21:46.041Z,29.28
2022-08-04T18:24:28.594Z,29.11
2022-08-04T18:27:06.333Z,28.83
2022-08-04T18:29:34.203Z,28.66
2022-08-04T18:32:06.424Z,28.55
2022-08-04T18:34:36.515Z,28.52
2022-08-04T18:38:06.467Z,28.42
2022-08-04T18:40:27.836Z,28.24
2022-08-04T18:43:00.519Z,28.13
2022-08-04T18:45:34.099Z,28.08
2022-08-04T18:48:02.294Z,27.90
2022-08-04T18:50:59.484Z,27.82
2022-08-04T18:53:17.640Z,27.73
2022-08-04T18:55:57.205Z,27.71
2022-08-04T18:58:26.917Z,27.67
2022-08-04T19:00:54.174Z,27.49
2022-08-04T19:06:07.661Z,27.26
2022-08-04T19:08:42.501Z,27.20
2022-08-04T19:11:37.396Z,26.94
2022-08-04T19:13:58.902Z,26.92
2022-08-04T19:16:28.525Z,26.65
2022-08-04T19:18:55.505Z,26.63
2022-08-04T19:21:59.321Z,26.51
2022-08-04T19:24:32.494Z,26.31
2022-08-04T19:26:56.858Z,26.28
2022-08-04T19:29:23.696Z,26.19
2022-08-04T19:32:04.070Z,25.82
2022-08-04T19:34:42.613Z,25.54
2022-08-04T19:37:19.871Z,25.11
2022-08-04T19:40:00.793Z,24.82
2022-08-04T19:42:27.918Z,24.74
2022-08-04T19:44:54.937Z,24.53
2022-08-04T19:48:12.175Z,24.44
2022-08-04T19:50:10.862Z,24.36
2022-08-04T19:52:40.500Z,24.16
2022-08-04T19:55:18.419Z,23.94
2022-08-04T19:57:50.494Z,23.88
2022-08-04T20:00:34.152Z,23.75
2022-08-04T20:03:02.766Z,23.66
2022-08-04T20:05:52.856Z,23.58
2022-08-04T20:08:16.536Z,23.48
2022-08-04T20:10:51.160Z,23.28
2022-08-04T20:13:19.467Z,23.24
2022-08-04T20:15:55.523Z,23.08
2022-08-04T20:18:35.926Z,23.10
2022-08-04T20:21:11.378Z,23.09
2022-08-04T20:23:48.822Z,23.06
2022-08-04T20:26:16.900Z,23.00
2022-08-04T20:28:45.950Z,23.05
2022-08-04T20:31:19.259Z,22.93
2022-08-04T20:33:53.883Z,22.82
2022-08-04T20:36:22.606Z,22.68
2022-08-04T20:38:52.680Z,22.60
2022-08-04T20:41:22.131Z,22.56
2022-08-04T20:43:50.074Z,22.49
2022-08-04T20:46:28.603Z,22.44
2022-08-04T20:48:57.321Z,22.34
2022-08-04T20:51:33.310Z,22.34
2022-08-04T20:54:01.942Z,22.22
2022-08-04T20:56:30.982Z,22.23
2022-08-04T20:59:01.409Z,22.19
2022-08-04T21:01:34.762Z,22.12
2022-08-04T21:04:27.897Z,22.17
2022-08-04T21:06:57.337Z,22.08
2022-08-04T21:09:37.489Z,21.91
2022-08-04T21:12:06.998Z,21.82
2022-08-04T21:14:34.250Z,21.68
2022-08-04T21:17:02.948Z,21.51
2022-08-04T21:19:33.717Z,21.47
2022-08-04T21:22:06.671Z,21.40
2022-08-04T21:24:37.726Z,21.40
2022-08-04T21:27:09.853Z,21.29
2022-08-04T21:29:37.048Z,21.18
2022-08-04T21:32:07.747Z,21.11
2022-08-04T21:34:39.311Z,21.04
2022-08-04T21:37:09.429Z,21.03
2022-08-04T21:39:50.150Z,21.03
2022-08-04T21:42:29.165Z,20.97
2022-08-04T21:44:57.411Z,20.89
2022-08-04T21:47:24.113Z,20.73
2022-08-04T21:49:56.256Z,20.67
2022-08-04T21:52:24.212Z,20.62
2022-08-04T21:54:54.537Z,20.73
2022-08-04T21:57:22.604Z,20.58
2022-08-04T21:59:51.607Z,20.53
2022-08-04T22:02:18.265Z,20.55
2022-08-04T22:04:44.916Z,20.48
2022-08-04T22:07:11.531Z,20.49
2022-08-04T22:09:41.592Z,20.47
2022-08-04T22:12:12.522Z,20.38
2022-08-04T22:14:40.438Z,20.34
2022-08-04T22:17:06.994Z,20.32
2022-08-04T22:19:55.026Z,20.33
2022-08-04T22:22:25.974Z,20.28
2022-08-04T22:24:58.721Z,20.21
2022-08-04T22:27:44.386Z,20.25
2022-08-04T22:30:17.493Z,20.04
2022-08-04T22:32:46.266Z,20.01
2022-08-04T22:35:35.450Z,19.85
2022-08-04T22:38:06.935Z,19.78
2022-08-04T22:40:36.501Z,19.69
2022-08-04T22:43:04.102Z,19.67
2022-08-04T22:45:50.823Z,19.63
2022-08-04T22:48:18.433Z,19.65
2022-08-04T22:53:20.168Z,19.63
2022-08-04T22:56:06.586Z,19.58
2022-08-04T22:58:33.237Z,19.51
2022-08-04T23:01:00.230Z,19.46
2022-08-04T23:03:37.327Z,19.40
2022-08-04T23:06:11.773Z,19.34
2022-08-04T23:08:42.907Z,19.32
2022-08-04T23:11:10.741Z,19.25
2022-08-04T23:13:37.784Z,19.19
2022-08-04T23:16:10.066Z,19.17
2022-08-04T23:18:41.883Z,19.18
2022-08-04T23:21:10.453Z,19.09
2022-08-04T23:23:45.489Z,19.04
2022-08-04T23:26:27.708Z,19.00
2022-08-04T23:28:55.613Z,19.00
2022-08-04T23:31:23.343Z,18.91
2022-08-04T23:33:52.097Z,18.84
2022-08-04T23:36:29.617Z,18.79
2022-08-04T23:39:04.155Z,18.81
2022-08-04T23:41:55.149Z,18.76
2022-08-04T23:44:24.852Z,18.70
2022-08-04T23:47:00.446Z,18.62
2022-08-04T23:49:43.751Z,18.54
2022-08-04T23:52:23.288Z,18.53
2022-08-04T23:54:55.784Z,18.62
2022-08-04T23:57:23.325Z,18.55
2022-08-04T23:59:54.286Z,18.56
